createdAt,value
2018-10-05T00:01:12.067Z,33.52
2018-10-05T00:03:42.389Z,33.21
2018-10-05T00:06:12.718Z,33.80
2018-10-05T00:08:43.037Z,33.25
2018-10-05T00:11:13.264Z,33.83
2018-10-05T00:13:43.286Z,33.32
2018-10-05T00:16:13.503Z,34.05
2018-10-05T00:18:43.831Z,33.85
2018-10-05T00:21:14.258Z,33.40
2018-10-05T00:23:44.787Z,33.62
2018-10-05T00:26:15.114Z,33.94
2018-10-05T00:28:45.426Z,33.42
2018-10-05T00:31:15.966Z,33.96
2018-10-05T00:33:46.296Z,33.42
2018-10-05T00:36:16.520Z,33.73
2018-10-05T00:38:47.049Z,33.37
2018-10-05T00:41:17.461Z,33.39
2018-10-05T00:43:47.591Z,33.45
2018-10-05T00:46:18.226Z,33.54
2018-10-05T00:48:48.546Z,34.12
2018-10-05T00:51:19.083Z,34.04
2018-10-05T00:53:49.712Z,34.01
2018-10-05T00:56:19.739Z,33.56
2018-10-05T00:58:50.471Z,34.13
2018-10-05T01:01:20.694Z,33.63
2018-10-05T01:03:51.229Z,33.53
2018-10-05T01:06:22.265Z,34.12
2018-10-05T01:08:53.103Z,33.57
2018-10-05T01:11:23.947Z,33.78
2018-10-05T01:13:54.873Z,33.69
2018-10-05T01:16:25.313Z,34.20
2018-10-05T01:18:55.635Z,33.65
2018-10-05T01:21:28.109Z,33.69
2018-10-05T01:23:58.434Z,33.70
2018-10-05T01:26:29.269Z,34.24
2018-10-05T01:28:59.701Z,33.84
2018-10-05T01:31:30.332Z,33.71
2018-10-05T01:34:00.349Z,33.74
2018-10-05T01:36:30.688Z,33.79
2018-10-05T01:39:01.317Z,34.18
2018-10-05T01:41:31.739Z,34.00
2018-10-05T01:44:02.060Z,34.33
2018-10-05T01:46:32.587Z,33.90
2018-10-05T01:49:02.908Z,34.47
2018-10-05T01:51:38.966Z,33.91
2018-10-05T01:54:09.502Z,34.16
2018-10-05T01:56:40.036Z,33.94
2018-10-05T01:59:10.462Z,34.46
2018-10-05T02:01:40.579Z,34.56
2018-10-05T02:04:11.112Z,33.97
2018-10-05T02:06:41.132Z,34.47
2018-10-05T02:09:11.355Z,34.64
2018-10-05T02:11:41.991Z,34.59
2018-10-05T02:14:12.514Z,34.60
2018-10-05T02:16:43.467Z,34.02
2018-10-05T02:19:13.892Z,34.31
2018-10-05T02:21:44.208Z,34.06
2018-10-05T02:24:14.236Z,34.64
2018-10-05T02:26:44.453Z,34.24
2018-10-05T02:29:14.875Z,34.46
2018-10-05T02:31:44.893Z,34.18
2018-10-05T02:34:15.325Z,34.79
2018-10-05T02:36:45.650Z,34.16
2018-10-05T02:39:15.766Z,34.32
2018-10-05T02:41:46.238Z,34.33
2018-10-05T02:44:16.622Z,34.73
2018-10-05T02:46:46.956Z,34.75
2018-10-05T02:49:17.273Z,34.81
2018-10-05T02:51:47.605Z,34.68
2018-10-05T02:54:17.825Z,34.90
2018-10-05T02:56:48.346Z,34.87
2018-10-05T02:59:18.781Z,34.54
2018-10-05T03:02:52.696Z,34.81
2018-10-05T03:05:23.326Z,34.38
2018-10-05T03:07:55.605Z,35.01
2018-10-05T03:10:26.027Z,34.50
2018-10-05T03:12:56.463Z,34.51
2018-10-05T03:15:26.989Z,35.09
2018-10-05T03:17:57.822Z,35.00
2018-10-05T03:20:28.444Z,35.06
2018-10-05T03:23:00.320Z,35.02
2018-10-05T03:25:30.650Z,35.07
2018-10-05T03:28:01.176Z,34.96
2018-10-05T03:30:31.627Z,35.03
2018-10-05T03:33:02.343Z,34.60
2018-10-05T03:35:33.070Z,34.64
2018-10-05T03:38:03.503Z,35.20
2018-10-05T03:40:33.612Z,34.73
2018-10-05T03:43:03.954Z,35.26
2018-10-05T03:45:34.171Z,35.30
2018-10-05T03:48:04.624Z,35.31
2018-10-05T03:50:34.724Z,35.36
2018-10-05T03:53:05.648Z,34.93
2018-10-05T03:55:35.778Z,35.13
2018-10-05T03:58:06.006Z,34.95
2018-10-05T04:00:36.433Z,35.09
2018-10-05T04:03:07.066Z,35.42
2018-10-05T04:05:37.491Z,34.90
2018-10-05T04:08:09.049Z,35.47
2018-10-05T04:10:39.370Z,35.56
2018-10-05T04:13:10.316Z,35.53
2018-10-05T04:15:42.066Z,35.53
2018-10-05T04:18:12.602Z,35.54
2018-10-05T04:34:06.776Z,35.54
2018-10-05T04:36:38.123Z,35.78
2018-10-05T04:39:09.975Z,35.78
2018-10-05T04:41:41.943Z,35.76
2018-10-05T04:44:12.893Z,35.58
2018-10-05T04:46:43.524Z,35.69
2018-10-05T04:49:14.048Z,35.45
2018-10-05T04:51:45.397Z,35.88
2018-10-05T04:54:16.449Z,35.40
2018-10-05T04:56:46.782Z,35.95
2018-10-05T04:59:17.301Z,35.39
2018-10-05T05:01:47.622Z,35.29
2018-10-05T05:04:17.852Z,35.74
2018-10-05T05:06:48.280Z,36.09
2018-10-05T05:09:18.912Z,35.90
2018-10-05T05:11:49.640Z,36.02
2018-10-05T05:14:20.682Z,37.08
2018-10-05T05:16:51.216Z,38.27
2018-10-05T05:19:22.569Z,39.06
2018-10-05T05:21:52.993Z,39.74
2018-10-05T05:24:23.932Z,39.86
2018-10-05T05:26:55.243Z,39.95
2018-10-05T05:29:25.914Z,40.05
2018-10-05T05:31:56.235Z,39.63
2018-10-05T05:34:26.767Z,39.77
2018-10-05T05:36:57.398Z,40.27
2018-10-05T05:39:27.830Z,40.49
2018-10-05T05:41:58.259Z,40.48
2018-10-05T05:44:28.371Z,40.64
2018-10-05T05:46:58.874Z,40.71
2018-10-05T05:49:29.545Z,40.85
2018-10-05T05:52:00.788Z,40.93
2018-10-05T05:54:31.449Z,41.08
2018-10-05T05:57:02.160Z,41.65
2018-10-05T05:59:32.996Z,41.09
2018-10-05T06:02:03.525Z,41.35
2018-10-05T06:04:34.055Z,40.92
2018-10-05T06:07:04.581Z,41.45
2018-10-05T06:09:35.218Z,40.77
2018-10-05T06:12:06.501Z,41.16
2018-10-05T06:14:36.996Z,41.12
2018-10-05T06:17:07.829Z,40.57
2018-10-05T06:19:38.556Z,40.34
2018-10-05T06:22:09.605Z,40.35
2018-10-05T06:24:40.448Z,40.23
2018-10-05T06:27:11.195Z,40.75
2018-10-05T06:29:41.304Z,40.61
2018-10-05T06:32:11.937Z,40.55
2018-10-05T06:34:42.467Z,40.37
2018-10-05T06:37:13.102Z,39.90
2018-10-05T06:39:43.640Z,40.01
2018-10-05T06:42:14.204Z,40.33
2018-10-05T06:44:44.585Z,39.73
2018-10-05T06:47:15.319Z,39.96
2018-10-05T06:49:45.645Z,40.15
2018-10-05T06:52:16.073Z,40.09
2018-10-05T06:54:46.500Z,39.48
2018-10-05T06:57:17.236Z,40.05
2018-10-05T06:59:47.354Z,39.80
2018-10-05T07:02:17.771Z,39.57
2018-10-05T07:04:48.520Z,39.82
2018-10-05T07:07:19.854Z,39.86
2018-10-05T07:09:51.321Z,39.46
2018-10-05T07:12:22.987Z,39.19
2018-10-05T07:14:53.818Z,39.20
2018-10-05T07:17:24.445Z,39.28
2018-10-05T07:19:55.485Z,39.07
2018-10-05T07:22:26.558Z,39.21
2018-10-05T07:24:57.466Z,39.18
2018-10-05T07:27:27.797Z,38.90
2018-10-05T07:29:58.226Z,39.24
2018-10-05T07:32:28.543Z,38.93
2018-10-05T07:34:59.383Z,39.37
2018-10-05T07:37:30.077Z,38.74
2018-10-05T07:40:00.754Z,38.78
2018-10-05T07:42:31.484Z,39.20
2018-10-05T07:45:02.015Z,38.75
2018-10-05T07:47:32.651Z,38.51
2018-10-05T07:50:02.975Z,38.60
2018-10-05T07:52:33.707Z,38.41
2018-10-05T07:55:04.856Z,38.44
2018-10-05T07:57:35.642Z,38.35
2018-10-05T08:00:06.839Z,38.22
2018-10-05T08:02:37.370Z,38.66
2018-10-05T08:05:07.697Z,38.56
2018-10-05T08:07:38.634Z,38.10
2018-10-05T08:10:09.676Z,38.24
2018-10-05T08:12:40.305Z,38.51
2018-10-05T08:15:11.044Z,38.60
2018-10-05T08:17:41.370Z,38.19
2018-10-05T08:20:12.207Z,37.95
2018-10-05T08:22:42.637Z,37.85
2018-10-05T08:25:13.882Z,38.27
2018-10-05T08:27:44.401Z,37.90
2018-10-05T08:30:14.938Z,38.39
2018-10-05T08:32:45.351Z,38.03
2018-10-05T08:35:15.894Z,37.76
2018-10-05T08:37:46.841Z,37.74
2018-10-05T08:40:17.507Z,38.22
2018-10-05T08:42:48.414Z,38.36
2018-10-05T08:45:18.751Z,37.73
2018-10-05T08:47:48.960Z,37.67
2018-10-05T08:50:19.483Z,37.63
2018-10-05T08:52:49.721Z,37.70
2018-10-05T08:55:20.344Z,38.20
2018-10-05T08:57:50.498Z,38.11
2018-10-05T09:00:21.110Z,37.63
2018-10-05T09:02:51.831Z,37.65
2018-10-05T09:05:22.158Z,38.10
2018-10-05T09:07:52.890Z,37.98
2018-10-05T09:10:23.616Z,38.22
2018-10-05T09:12:54.158Z,37.83
2018-10-05T09:15:24.389Z,37.57
2018-10-05T09:17:55.058Z,38.13
2018-10-05T09:20:25.854Z,38.19
2018-10-05T09:22:56.706Z,38.23
2018-10-05T09:25:27.020Z,37.75
2018-10-05T09:27:57.956Z,37.65
2018-10-05T09:30:29.238Z,37.64
2018-10-05T09:33:00.859Z,37.98
2018-10-05T09:35:33.689Z,37.57
2018-10-05T09:38:15.436Z,38.25
2018-10-05T09:40:47.295Z,37.71
2018-10-05T09:43:17.929Z,37.75
2018-10-05T09:45:49.283Z,38.05
2018-10-05T09:48:20.117Z,38.23
2018-10-05T09:50:50.744Z,37.71
2018-10-05T09:53:21.067Z,37.68
2018-10-05T09:55:51.402Z,37.66
2018-10-05T09:58:21.864Z,38.22
2018-10-05T10:00:57.471Z,38.06
2018-10-05T10:03:33.531Z,38.22
2018-10-05T10:06:04.168Z,37.73
2018-10-05T10:08:34.396Z,37.59
2018-10-05T10:11:05.333Z,37.67
2018-10-05T10:13:35.864Z,38.16
2018-10-05T10:16:06.800Z,37.59
2018-10-05T10:18:37.344Z,37.83
2018-10-05T10:21:07.863Z,38.19
2018-10-05T10:23:38.391Z,37.72
2018-10-05T10:26:08.824Z,37.64
2018-10-05T10:28:39.654Z,38.04
2018-10-05T10:31:10.183Z,38.06
2018-10-05T10:33:40.657Z,37.99
2018-10-05T10:36:11.041Z,37.41
2018-10-05T10:38:41.262Z,37.47
2018-10-05T10:41:11.702Z,37.98
2018-10-05T10:43:42.326Z,37.91
2018-10-05T10:46:12.757Z,37.92
2018-10-05T10:48:43.280Z,37.96
2018-10-05T10:51:14.324Z,37.37
2018-10-05T10:53:44.957Z,37.34
2018-10-05T10:56:15.855Z,37.43
2018-10-05T10:58:46.635Z,37.29
2018-10-05T11:01:17.061Z,37.37
2018-10-05T11:03:47.273Z,37.75
2018-10-05T11:06:18.119Z,37.68
2018-10-05T11:08:48.853Z,37.52
2018-10-05T11:11:19.689Z,37.83
2018-10-05T11:13:52.482Z,37.41
2018-10-05T11:16:23.338Z,37.57
2018-10-05T11:18:54.156Z,37.78
2018-10-05T11:21:24.476Z,37.31
2018-10-05T11:23:55.479Z,37.18
2018-10-05T11:26:26.561Z,37.73
2018-10-05T11:28:57.368Z,37.73
2018-10-05T11:31:28.138Z,37.72
2018-10-05T11:33:58.769Z,37.21
2018-10-05T11:36:29.490Z,37.93
2018-10-05T11:38:59.722Z,37.36
2018-10-05T11:41:30.266Z,37.86
2018-10-05T11:44:00.581Z,37.25
2018-10-05T11:46:31.137Z,37.21
2018-10-05T11:49:01.431Z,37.81
2018-10-05T11:51:32.371Z,37.86
2018-10-05T11:54:03.558Z,37.83
2018-10-05T11:56:35.081Z,37.55
2018-10-05T11:59:06.121Z,37.76
2018-10-05T12:01:37.672Z,37.92
2018-10-05T12:04:09.632Z,37.77
2018-10-05T12:06:40.985Z,37.23
2018-10-05T12:09:12.233Z,37.86
2018-10-05T12:11:42.966Z,37.88
2018-10-05T12:14:13.812Z,37.31
2018-10-05T12:16:44.330Z,37.93
2018-10-05T12:19:14.868Z,37.38
2018-10-05T12:21:45.190Z,37.92
2018-10-05T12:24:16.127Z,37.85
2018-10-05T12:26:47.156Z,37.86
2018-10-05T12:29:17.796Z,37.26
2018-10-05T12:31:48.337Z,37.26
2018-10-05T12:34:18.963Z,37.39
2018-10-05T12:36:49.392Z,37.31
2018-10-05T12:39:19.831Z,37.47
2018-10-05T12:41:50.270Z,37.28
2018-10-05T12:44:20.469Z,37.26
2018-10-05T12:46:50.888Z,37.76
2018-10-05T12:49:21.633Z,37.74
2018-10-05T12:51:52.267Z,37.65
2018-10-05T12:54:23.000Z,37.74
2018-10-05T12:56:53.330Z,37.08
2018-10-05T12:59:23.457Z,37.12
2018-10-05T13:01:54.184Z,37.71
2018-10-05T13:04:25.014Z,37.61
2018-10-05T13:06:55.759Z,37.63
2018-10-05T13:09:26.488Z,37.06
2018-10-05T13:11:56.708Z,37.40
2018-10-05T13:14:27.347Z,37.03
2018-10-05T13:16:57.983Z,37.59
2018-10-05T13:19:28.821Z,37.67
2018-10-05T13:21:59.731Z,37.32
2018-10-05T13:24:30.283Z,37.53
2018-10-05T13:27:00.609Z,36.95
2018-10-05T13:29:31.148Z,37.49
2018-10-05T13:32:01.926Z,36.88
2018-10-05T13:34:32.512Z,37.45
2018-10-05T13:37:03.450Z,36.80
2018-10-05T13:39:34.598Z,36.80
2018-10-05T13:42:05.827Z,37.40
2018-10-05T13:44:36.252Z,37.35
2018-10-05T13:47:07.308Z,36.83
2018-10-05T13:49:38.968Z,36.86
2018-10-05T13:52:10.420Z,36.65
2018-10-05T13:54:40.849Z,36.67
2018-10-05T13:57:11.480Z,37.29
2018-10-05T13:59:42.526Z,37.08
2018-10-05T14:02:13.465Z,37.28
2018-10-05T14:04:45.224Z,36.54
2018-10-05T14:07:15.957Z,37.21
2018-10-05T14:09:46.381Z,37.16
2018-10-05T14:12:17.735Z,36.53
2018-10-05T14:14:48.279Z,36.57
2018-10-05T14:17:18.996Z,36.86
2018-10-05T14:19:49.214Z,37.09
2018-10-05T14:22:19.554Z,37.10
2018-10-05T14:24:50.183Z,37.10
2018-10-05T14:27:21.427Z,36.47
2018-10-05T14:29:52.362Z,37.22
2018-10-05T14:32:22.904Z,36.47
2018-10-05T14:34:53.221Z,36.42
2018-10-05T14:37:23.546Z,36.48
2018-10-05T14:39:53.972Z,37.01
2018-10-05T14:42:24.301Z,36.68
2018-10-05T14:44:54.825Z,36.99
2018-10-05T14:47:25.610Z,36.90
2018-10-05T14:49:56.093Z,36.94
2018-10-05T14:52:27.551Z,36.95
2018-10-05T14:54:57.884Z,36.46
2018-10-05T14:57:28.428Z,36.97
2018-10-05T14:59:59.342Z,36.31
2018-10-05T15:02:30.288Z,36.32
2018-10-05T15:05:00.912Z,36.30
2018-10-05T15:07:31.655Z,36.89
2018-10-05T15:10:04.235Z,36.29
2018-10-05T15:12:35.833Z,36.98
2018-10-05T15:15:07.777Z,36.88
2018-10-05T15:17:39.098Z,36.31
2018-10-05T15:20:09.627Z,36.86
2018-10-05T15:22:40.256Z,36.54
2018-10-05T15:25:10.578Z,36.27
2018-10-05T15:27:40.706Z,36.80
2018-10-05T15:30:11.029Z,36.81
2018-10-05T15:32:41.712Z,36.37
2018-10-05T15:35:12.091Z,36.81
2018-10-05T15:37:42.613Z,36.32
2018-10-05T15:40:12.930Z,36.84
2018-10-05T15:42:43.978Z,36.81
2018-10-05T15:45:14.418Z,36.23
2018-10-05T15:47:44.843Z,36.19
2018-10-05T15:50:15.779Z,36.38
2018-10-05T15:52:46.213Z,36.21
2018-10-05T15:55:16.838Z,36.73
2018-10-05T15:57:47.264Z,36.25
2018-10-05T16:00:20.287Z,36.33
2018-10-05T16:02:50.887Z,36.13
2018-10-05T16:05:21.431Z,36.60
2018-10-05T16:07:53.689Z,36.82
2018-10-05T16:10:24.528Z,36.69
2018-10-05T16:12:55.078Z,36.61
2018-10-05T16:15:25.686Z,36.20
2018-10-05T16:17:57.345Z,36.70
2018-10-05T16:37:35.075Z,36.09
2018-10-05T16:40:10.427Z,36.59
2018-10-05T16:42:45.241Z,36.46
2018-10-05T16:45:18.136Z,36.58
2018-10-05T16:47:49.366Z,36.50
2018-10-05T16:50:23.899Z,36.55
2018-10-05T16:54:24.544Z,36.10
2018-10-05T16:56:57.419Z,36.06
2018-10-05T16:59:31.855Z,36.00
2018-10-05T17:02:07.249Z,36.45
2018-10-05T17:04:41.618Z,36.48
2018-10-05T17:07:14.916Z,36.06
2018-10-05T17:09:48.098Z,36.20
2018-10-05T17:12:24.370Z,35.98
2018-10-05T17:14:56.326Z,36.40
2018-10-05T17:17:29.112Z,36.48
2018-10-05T17:20:00.554Z,36.07
2018-10-05T17:22:33.859Z,36.39
2018-10-05T17:25:06.700Z,36.45
2018-10-05T17:27:37.273Z,35.86
2018-10-05T17:30:09.752Z,36.36
2018-10-05T17:32:43.761Z,35.95
2018-10-05T17:35:14.871Z,35.91
2018-10-05T17:37:47.540Z,36.26
2018-10-05T17:40:18.218Z,36.37
2018-10-05T17:42:49.666Z,36.44
2018-10-05T17:45:20.006Z,36.02
2018-10-05T17:47:50.838Z,35.83
2018-10-05T17:50:21.382Z,35.75
2018-10-05T17:52:52.723Z,35.84
2018-10-05T17:55:25.806Z,36.32
2018-10-05T17:57:57.157Z,35.80
2018-10-05T18:00:28.804Z,36.33
2018-10-05T18:03:01.098Z,35.75
2018-10-05T18:05:31.802Z,35.89
2018-10-05T18:08:03.792Z,36.22
2018-10-05T18:10:34.412Z,35.79
2018-10-05T18:13:05.352Z,36.07
2018-10-05T18:15:39.257Z,36.04
2018-10-05T18:18:09.785Z,36.09
2018-10-05T18:20:41.653Z,35.70
2018-10-05T18:23:12.487Z,35.63
2018-10-05T18:25:43.429Z,36.12
2018-10-05T18:28:13.652Z,35.71
2018-10-05T18:30:44.390Z,36.08
2018-10-05T18:33:15.013Z,36.02
2018-10-05T18:35:45.992Z,35.95
2018-10-05T18:38:16.981Z,35.46
2018-10-05T18:40:47.529Z,35.33
2018-10-05T18:43:18.053Z,35.38
2018-10-05T18:45:48.588Z,35.39
2018-10-05T18:48:19.326Z,36.00
2018-10-05T18:50:49.970Z,35.43
2018-10-05T18:53:20.800Z,35.75
2018-10-05T18:55:51.020Z,35.27
2018-10-05T18:58:21.134Z,35.79
2018-10-05T19:00:51.874Z,35.45
2018-10-05T19:03:22.913Z,35.28
2018-10-05T19:05:55.089Z,35.57
2018-10-05T19:08:25.717Z,35.16
2018-10-05T19:10:56.345Z,35.65
2018-10-05T19:13:26.916Z,35.07
2018-10-05T19:15:57.510Z,35.57
2018-10-05T19:18:28.457Z,35.03
2018-10-05T19:21:00.932Z,35.46
2018-10-05T19:23:32.179Z,35.54
2018-10-05T19:26:02.644Z,35.53
2018-10-05T19:28:34.618Z,34.88
2018-10-05T19:31:05.914Z,34.97
2018-10-05T19:33:36.752Z,35.33
2018-10-05T19:36:08.404Z,35.40
2018-10-05T19:38:40.377Z,35.06
2018-10-05T19:41:11.420Z,34.70
2018-10-05T19:43:42.454Z,35.25
2018-10-05T19:46:13.710Z,35.25
2018-10-05T19:48:45.265Z,35.20
2018-10-05T19:51:15.800Z,35.30
2018-10-05T19:53:46.849Z,35.20
2018-10-05T19:56:17.775Z,34.67
2018-10-05T19:58:50.354Z,35.12
2018-10-05T20:01:21.189Z,34.73
2018-10-05T20:03:51.718Z,35.06
2018-10-05T20:06:23.062Z,34.70
2018-10-05T20:08:53.388Z,34.52
2018-10-05T20:11:23.823Z,34.68
2018-10-05T20:13:54.246Z,35.12
2018-10-05T20:16:25.287Z,34.51
2018-10-05T20:18:55.309Z,34.49
2018-10-05T20:21:25.737Z,34.55
2018-10-05T20:23:56.692Z,35.06
2018-10-05T20:26:28.025Z,34.39
2018-10-05T20:28:58.967Z,35.00
2018-10-05T20:31:29.493Z,34.97
2018-10-05T20:34:00.847Z,34.47
2018-10-05T20:36:31.907Z,34.37
2018-10-05T20:39:02.419Z,34.67
2018-10-05T20:41:33.250Z,34.32
2018-10-05T20:44:03.581Z,34.50
2018-10-05T20:46:34.119Z,34.88
2018-10-05T20:49:05.255Z,34.77
2018-10-05T20:51:36.019Z,34.21
2018-10-05T20:54:08.064Z,34.24
2018-10-05T20:56:38.835Z,34.63
2018-10-05T20:59:09.423Z,34.20
2018-10-05T21:01:39.643Z,34.12
2018-10-05T21:04:10.235Z,34.15
2018-10-05T21:06:50.037Z,34.12
2018-10-05T21:09:20.761Z,34.06
2018-10-05T21:11:51.491Z,34.55
2018-10-05T21:14:21.983Z,34.52
2018-10-05T21:16:52.242Z,34.53
2018-10-05T21:19:23.188Z,34.03
2018-10-05T21:25:51.903Z,34.50
2018-10-05T21:28:22.329Z,34.51
2018-10-05T21:30:53.066Z,33.97
2018-10-05T21:33:23.642Z,33.85
2018-10-05T21:35:54.229Z,34.39
2018-10-05T21:38:25.166Z,34.34
2018-10-05T21:40:55.703Z,33.98
2018-10-05T21:43:26.642Z,34.29
2018-10-05T21:45:57.271Z,34.06
2018-10-05T21:48:28.216Z,34.50
2018-10-05T21:50:59.138Z,34.25
2018-10-05T21:53:29.806Z,34.48
2018-10-05T21:56:00.318Z,34.22
2018-10-05T21:58:30.531Z,34.84
2018-10-05T22:01:01.266Z,34.95
2018-10-05T22:03:32.313Z,34.94
2018-10-05T22:06:03.762Z,34.40
2018-10-05T22:08:33.884Z,35.06
2018-10-05T22:11:04.207Z,34.54
2018-10-05T22:13:34.324Z,34.81
2018-10-05T22:16:04.973Z,35.07
2018-10-05T22:18:35.194Z,34.72
2018-10-05T22:21:06.433Z,34.67
2018-10-05T22:23:37.269Z,34.56
2018-10-05T22:26:08.413Z,34.62
2018-10-05T22:28:38.640Z,34.50
2018-10-05T22:31:09.268Z,34.54
2018-10-05T22:33:39.490Z,34.65
2018-10-05T22:36:09.817Z,34.62
2018-10-05T22:38:40.143Z,35.20
2018-10-05T22:41:10.459Z,35.19
2018-10-05T22:43:41.202Z,34.84
2018-10-05T22:46:11.533Z,34.66
2018-10-05T22:48:41.962Z,34.75
2018-10-05T22:51:12.283Z,35.37
2018-10-05T22:53:42.409Z,34.83
2018-10-05T22:56:12.831Z,34.80
2018-10-05T22:58:43.061Z,35.47
2018-10-05T23:01:13.792Z,35.48
2018-10-05T23:03:44.733Z,35.53
2018-10-05T23:06:15.461Z,35.51
2018-10-05T23:08:45.991Z,35.48
2018-10-05T23:11:16.218Z,35.00
2018-10-05T23:13:46.545Z,35.41
2018-10-05T23:16:17.173Z,35.00
2018-10-05T23:18:47.405Z,35.05
2018-10-05T23:21:17.714Z,35.29
2018-10-05T23:23:47.840Z,35.40
2018-10-05T23:26:19.299Z,34.98
2018-10-05T23:28:49.766Z,35.64
2018-10-05T23:31:19.850Z,35.15
2018-10-05T23:33:49.959Z,35.14
2018-10-05T23:36:20.900Z,35.17
2018-10-05T23:38:51.542Z,35.21
2018-10-05T23:41:21.965Z,35.74
2018-10-05T23:43:52.600Z,35.27
2018-10-05T23:46:23.137Z,35.55
2018-10-05T23:48:54.169Z,35.12
2018-10-05T23:51:24.596Z,35.41
2018-10-05T23:53:54.617Z,34.99
2018-10-05T23:56:25.042Z,35.00
2018-10-05T23:58:55.881Z,35.34
